createdAt,value
2023-03-11T00:02:27.639Z,19.73
2023-03-11T00:06:09.644Z,16.13
2023-03-11T00:09:51.380Z,16.67
2023-03-11T00:13:33.253Z,16.17
2023-03-11T00:17:15.028Z,16.13
2023-03-11T00:20:57.935Z,19.10
2023-03-11T00:24:39.637Z,19.75
2023-03-11T00:28:25.291Z,15.57
2023-03-11T00:32:07.466Z,14.35
2023-03-11T00:35:50.324Z,16.08
2023-03-11T00:39:32.121Z,12.85
2023-03-11T00:43:14.215Z,14.43
2023-03-11T00:46:56.175Z,14.57
2023-03-11T00:50:38.104Z,16.50
2023-03-11T00:54:19.917Z,16.33
2023-03-11T00:58:05.114Z,13.30
2023-03-11T01:01:46.896Z,13.45
2023-03-11T01:05:31.400Z,15.35
2023-03-11T01:09:13.325Z,16.95
2023-03-11T01:12:55.124Z,14.95
2023-03-11T01:16:36.900Z,15.45
2023-03-11T01:20:18.860Z,17.42
2023-03-11T01:24:00.702Z,20.90
2023-03-11T01:27:42.712Z,15.70
2023-03-11T01:31:24.567Z,15.40
2023-03-11T01:35:06.844Z,16.15
2023-03-11T01:38:48.624Z,14.57
2023-03-11T01:42:30.364Z,14.32
2023-03-11T01:46:32.020Z,16.25
2023-03-11T01:50:14.029Z,13.45
2023-03-11T01:53:57.372Z,11.95
2023-03-11T01:57:40.946Z,15.07
2023-03-11T02:01:23.868Z,14.55
2023-03-11T02:05:05.828Z,15.35
2023-03-11T02:08:48.315Z,16.45
2023-03-11T02:12:33.834Z,9.17
2023-03-11T02:16:16.403Z,12.50
2023-03-11T02:20:32.694Z,14.90
2023-03-11T02:24:57.031Z,14.30
2023-03-11T02:28:40.832Z,13.23
2023-03-11T02:32:22.907Z,13.65
2023-03-11T02:36:05.487Z,12.15
2023-03-11T02:39:50.056Z,16.10
2023-03-11T02:43:36.862Z,13.18
2023-03-11T02:47:18.832Z,12.63
2023-03-11T02:51:00.687Z,14.85
2023-03-11T02:54:42.378Z,17.98
2023-03-11T02:58:24.200Z,14.35
2023-03-11T03:02:05.989Z,15.85
2023-03-11T03:05:47.832Z,16.02
2023-03-11T03:09:29.588Z,15.63
2023-03-11T03:13:11.405Z,14.93
2023-03-11T03:16:53.289Z,13.00
2023-03-11T03:20:35.101Z,12.70
2023-03-11T03:24:16.876Z,13.98
2023-03-11T03:27:58.597Z,15.20
2023-03-11T03:31:40.335Z,14.95
2023-03-11T03:35:22.100Z,14.55
2023-03-11T03:39:04.916Z,13.45
2023-03-11T03:42:46.676Z,12.32
2023-03-11T03:46:28.557Z,12.52
2023-03-11T03:50:11.583Z,12.98
2023-03-11T03:53:53.381Z,14.45
2023-03-11T03:57:35.176Z,13.13
2023-03-11T04:01:17.335Z,14.60
2023-03-11T04:04:59.037Z,14.60
2023-03-11T04:08:40.802Z,12.60
2023-03-11T04:12:22.587Z,12.35
2023-03-11T04:16:06.308Z,13.30
2023-03-11T04:19:48.022Z,13.50
2023-03-11T04:23:29.774Z,11.95
2023-03-11T04:27:11.575Z,12.35
2023-03-11T04:30:53.377Z,13.02
2023-03-11T04:34:35.217Z,10.77
2023-03-11T04:38:17.072Z,13.35
2023-03-11T04:41:58.858Z,11.65
2023-03-11T04:45:42.356Z,13.73
2023-03-11T04:53:05.689Z,10.65
2023-03-11T04:56:47.388Z,11.88
2023-03-11T05:00:29.146Z,10.70
2023-03-11T05:04:11.989Z,10.65
2023-03-11T05:07:53.845Z,11.90
2023-03-11T05:11:35.985Z,12.77
2023-03-11T05:15:19.043Z,10.00
2023-03-11T05:19:00.794Z,13.68
2023-03-11T05:22:42.531Z,10.05
2023-03-11T05:26:24.273Z,11.30
2023-03-11T05:30:07.029Z,10.10
2023-03-11T05:33:48.728Z,12.05
2023-03-11T05:37:33.463Z,9.80
2023-03-11T05:41:15.195Z,9.57
2023-03-11T05:44:56.901Z,12.48
2023-03-11T05:48:39.234Z,9.77
2023-03-11T05:52:20.994Z,10.50
2023-03-11T05:56:02.863Z,13.30
2023-03-11T05:59:44.812Z,10.18
2023-03-11T06:03:26.620Z,10.73
2023-03-11T06:07:08.429Z,8.23
2023-03-11T06:10:50.167Z,9.85
2023-03-11T06:14:32.628Z,9.50
2023-03-11T06:18:14.354Z,12.90
2023-03-11T06:21:56.070Z,11.02
2023-03-11T06:25:37.781Z,9.73
2023-03-11T06:29:19.587Z,9.38
2023-03-11T06:33:01.465Z,8.95
2023-03-11T06:36:43.164Z,8.30
2023-03-11T06:40:24.871Z,8.05
2023-03-11T06:44:06.595Z,7.88
2023-03-11T06:47:48.336Z,11.77
2023-03-11T06:51:30.130Z,8.32
2023-03-11T06:55:11.953Z,9.38
2023-03-11T06:58:54.715Z,9.45
2023-03-11T07:02:36.421Z,9.48
2023-03-11T07:06:23.528Z,10.68
2023-03-11T07:10:06.492Z,10.73
2023-03-11T07:13:48.430Z,11.55
2023-03-11T07:17:30.164Z,9.13
2023-03-11T07:21:15.368Z,10.90
2023-03-11T07:24:57.154Z,8.63
2023-03-11T07:28:39.332Z,9.77
2023-03-11T07:32:21.108Z,9.13
2023-03-11T07:36:11.822Z,8.77
2023-03-11T07:39:53.571Z,10.13
2023-03-11T07:43:35.337Z,7.60
2023-03-11T07:47:17.144Z,6.40
2023-03-11T07:51:13.586Z,8.05
2023-03-11T07:54:55.281Z,9.38
2023-03-11T07:58:37.560Z,7.22
2023-03-11T08:02:19.342Z,7.82
2023-03-11T08:06:01.596Z,10.32
2023-03-11T08:09:43.623Z,9.52
2023-03-11T08:13:25.903Z,7.53
2023-03-11T08:17:07.664Z,9.98
2023-03-11T08:20:50.075Z,17.48
2023-03-11T08:24:31.835Z,10.70
2023-03-11T08:28:13.689Z,8.98
2023-03-11T08:31:55.391Z,11.45
2023-03-11T08:35:37.774Z,12.00
2023-03-11T08:39:19.764Z,8.57
2023-03-11T08:43:01.557Z,9.10
2023-03-11T08:46:43.352Z,11.73
2023-03-11T08:50:25.361Z,12.13
2023-03-11T08:54:07.081Z,11.10
2023-03-11T08:57:48.780Z,12.80
2023-03-11T09:01:30.601Z,8.52
2023-03-11T09:05:12.318Z,10.50
2023-03-11T09:08:54.035Z,8.65
2023-03-11T09:12:35.745Z,9.38
2023-03-11T09:16:20.340Z,10.95
2023-03-11T09:20:02.364Z,9.90
2023-03-11T09:23:44.697Z,9.95
2023-03-11T09:27:26.509Z,8.13
2023-03-11T09:31:08.474Z,11.65
2023-03-11T09:34:50.212Z,10.18
2023-03-11T09:38:31.964Z,8.80
2023-03-11T09:42:42.556Z,12.23
2023-03-11T09:46:48.376Z,14.55
2023-03-11T09:50:40.980Z,14.55
2023-03-11T09:54:23.247Z,10.18
2023-03-11T09:58:12.634Z,7.65
2023-03-11T10:01:54.488Z,11.80
2023-03-11T10:05:37.133Z,10.65
2023-03-11T10:09:40.790Z,10.13
2023-03-11T10:13:38.994Z,9.55
2023-03-11T10:17:45.323Z,9.55
2023-03-11T10:21:35.839Z,8.82
2023-03-11T10:25:19.270Z,9.50
2023-03-11T10:33:27.813Z,6.47
2023-03-11T10:37:17.195Z,10.10
2023-03-11T10:41:13.625Z,5.50
2023-03-11T10:44:55.394Z,7.07
2023-03-11T10:48:37.177Z,8.55
2023-03-11T10:52:19.655Z,10.90
2023-03-11T10:56:01.478Z,6.30
2023-03-11T10:59:50.519Z,6.10
2023-03-11T11:03:33.829Z,4.32
2023-03-11T11:11:04.627Z,4.80
2023-03-11T11:14:46.406Z,5.18
2023-03-11T11:18:48.873Z,8.90
2023-03-11T11:22:32.236Z,10.27
2023-03-11T11:26:25.696Z,5.88
2023-03-11T11:33:53.233Z,5.05
2023-03-11T11:37:37.443Z,4.47
2023-03-11T11:41:22.230Z,4.70
2023-03-11T11:45:14.679Z,4.57
2023-03-11T11:49:20.911Z,4.75
2023-03-11T11:53:36.616Z,5.88
2023-03-11T11:57:21.473Z,5.78
2023-03-11T12:01:27.595Z,5.47
2023-03-11T12:05:12.171Z,4.40
2023-03-11T12:09:30.130Z,3.65
2023-03-11T12:13:23.516Z,4.10
2023-03-11T12:17:05.591Z,5.90
2023-03-11T12:20:54.120Z,2.70
2023-03-11T12:24:44.629Z,2.92
2023-03-11T12:28:32.465Z,4.53
2023-03-11T12:32:44.169Z,5.65
2023-03-11T12:36:32.013Z,5.00
2023-03-11T12:40:59.521Z,5.50
2023-03-11T12:44:42.099Z,4.47
2023-03-11T12:48:29.905Z,4.85
2023-03-11T12:52:11.686Z,2.92
2023-03-11T12:56:15.995Z,5.07
2023-03-11T13:00:18.109Z,5.97
2023-03-11T13:04:10.203Z,3.40
2023-03-11T13:08:04.231Z,5.43
2023-03-11T13:11:48.107Z,3.90
2023-03-11T13:15:35.366Z,4.40
2023-03-11T13:19:26.414Z,5.20
2023-03-11T13:23:09.731Z,4.25
2023-03-11T13:30:53.574Z,9.25
2023-03-11T13:34:57.593Z,7.03
2023-03-11T13:38:58.596Z,6.38
2023-03-11T13:42:52.002Z,7.07
2023-03-11T13:46:40.116Z,4.65
2023-03-11T13:50:53.592Z,3.95
2023-03-11T13:54:49.032Z,4.07
2023-03-11T13:58:30.772Z,8.60
2023-03-11T14:02:19.826Z,5.00
2023-03-11T14:06:07.643Z,3.58
2023-03-11T14:09:49.436Z,5.00
2023-03-11T14:13:33.959Z,4.82
2023-03-11T14:17:18.818Z,6.03
2023-03-11T14:21:01.531Z,6.80
2023-03-11T14:24:48.278Z,4.40
2023-03-11T14:28:33.893Z,8.07
2023-03-11T14:32:29.303Z,5.22
2023-03-11T14:36:14.094Z,6.18
2023-03-11T14:39:55.829Z,7.18
2023-03-11T14:43:41.378Z,7.05
2023-03-11T14:47:49.060Z,6.38
2023-03-11T14:51:33.436Z,8.02
2023-03-11T14:55:33.660Z,5.95
2023-03-11T14:59:26.755Z,6.85
2023-03-11T15:03:33.296Z,6.93
2023-03-11T15:07:20.032Z,8.38
2023-03-11T15:11:06.222Z,10.18
2023-03-11T15:14:52.061Z,8.88
2023-03-11T15:18:37.867Z,5.95
2023-03-11T15:22:24.645Z,9.25
2023-03-11T15:26:07.073Z,8.15
2023-03-11T15:29:53.001Z,21.83
2023-03-11T15:33:35.224Z,8.45
2023-03-11T15:37:21.377Z,10.75
2023-03-11T15:41:03.775Z,9.65
2023-03-11T15:44:51.290Z,15.40
2023-03-11T15:48:33.094Z,13.35
2023-03-11T15:52:15.864Z,10.05
2023-03-11T15:56:07.398Z,10.40
2023-03-11T15:59:51.718Z,9.57
2023-03-11T16:03:33.706Z,11.82
2023-03-11T16:07:16.254Z,8.18
2023-03-11T16:14:40.561Z,7.43
2023-03-11T16:18:22.324Z,6.97
2023-03-11T16:22:04.822Z,7.40
2023-03-11T16:25:47.383Z,7.77
2023-03-11T16:29:29.264Z,8.27
2023-03-11T16:33:11.103Z,10.00
2023-03-11T16:36:52.793Z,8.77
2023-03-11T16:40:35.047Z,8.30
2023-03-11T16:44:16.889Z,9.73
2023-03-11T16:47:58.830Z,9.80
2023-03-11T16:51:40.523Z,14.32
2023-03-11T16:55:23.382Z,8.13
2023-03-11T16:59:05.184Z,10.32
2023-03-11T17:02:46.958Z,8.52
2023-03-11T17:06:28.676Z,8.00
2023-03-11T17:10:11.781Z,6.20
2023-03-11T17:13:55.395Z,10.38
2023-03-11T17:17:40.301Z,12.07
2023-03-11T17:21:22.475Z,12.43
2023-03-11T17:25:04.861Z,20.75
2023-03-11T17:28:46.768Z,19.02
2023-03-11T17:32:29.477Z,12.38
2023-03-11T17:36:16.005Z,11.93
2023-03-11T17:39:57.839Z,15.13
2023-03-11T17:43:40.360Z,9.63
2023-03-11T17:47:25.961Z,10.33
2023-03-11T17:51:12.644Z,10.85
2023-03-11T17:54:56.485Z,10.35
2023-03-11T17:58:38.502Z,9.68
2023-03-11T18:02:20.777Z,7.70
2023-03-11T18:06:05.058Z,7.28
2023-03-11T18:09:46.803Z,8.63
2023-03-11T18:13:29.484Z,8.80
2023-03-11T18:17:11.302Z,10.57
2023-03-11T18:20:53.095Z,12.35
2023-03-11T18:24:34.988Z,12.02
2023-03-11T18:28:16.993Z,10.75
2023-03-11T18:31:58.795Z,8.20
2023-03-11T18:35:40.577Z,9.15
2023-03-11T18:39:22.289Z,8.15
2023-03-11T18:43:04.137Z,8.90
2023-03-11T18:46:45.881Z,6.03
2023-03-11T18:50:28.707Z,8.40
2023-03-11T18:54:10.596Z,7.20
2023-03-11T18:57:53.219Z,5.97
2023-03-11T19:01:35.112Z,8.43
2023-03-11T19:05:17.045Z,8.18
2023-03-11T19:08:59.046Z,8.48
2023-03-11T19:12:43.093Z,9.02
2023-03-11T19:16:26.879Z,8.50
2023-03-11T19:20:09.631Z,7.93
2023-03-11T19:23:55.030Z,7.63
2023-03-11T19:27:38.967Z,8.60
2023-03-11T19:31:20.832Z,8.80
2023-03-11T19:35:02.597Z,10.50
2023-03-11T19:38:44.373Z,8.45
2023-03-11T19:42:26.163Z,15.70
2023-03-11T19:46:09.287Z,9.00
2023-03-11T19:49:51.116Z,9.45
2023-03-11T19:53:33.701Z,9.90
2023-03-11T19:57:16.944Z,8.15
2023-03-11T20:00:59.808Z,9.32
2023-03-11T20:04:43.223Z,10.32
2023-03-11T20:08:25.902Z,8.68
2023-03-11T20:12:07.908Z,9.70
2023-03-11T20:15:50.313Z,10.77
2023-03-11T20:19:32.111Z,9.50
2023-03-11T20:23:14.144Z,9.27
2023-03-11T20:26:55.836Z,8.60
2023-03-11T20:30:39.055Z,8.98
2023-03-11T20:34:21.110Z,9.25
2023-03-11T20:38:03.132Z,10.48
2023-03-11T20:41:44.957Z,10.98
2023-03-11T20:45:26.831Z,8.35
2023-03-11T20:49:08.795Z,21.30
2023-03-11T20:52:51.179Z,10.18
2023-03-11T20:56:33.019Z,8.60
2023-03-11T21:00:15.184Z,8.50
2023-03-11T21:04:00.002Z,10.68
2023-03-11T21:07:41.938Z,10.40
2023-03-11T21:11:24.988Z,8.68
2023-03-11T21:15:08.073Z,7.65
2023-03-11T21:18:50.245Z,8.65
2023-03-11T21:22:32.829Z,9.15
2023-03-11T21:26:16.302Z,10.97
2023-03-11T21:29:59.386Z,11.15
2023-03-11T21:33:41.992Z,13.30
2023-03-11T21:37:24.115Z,14.05
2023-03-11T21:41:11.998Z,17.27
2023-03-11T21:44:54.027Z,14.30
2023-03-11T21:48:36.133Z,12.88
2023-03-11T21:52:18.760Z,16.42
2023-03-11T21:56:01.389Z,13.88
2023-03-11T21:59:43.295Z,19.25
2023-03-11T22:03:25.265Z,16.77
2023-03-11T22:07:07.086Z,12.32
2023-03-11T22:10:48.795Z,15.90
2023-03-11T22:14:30.820Z,15.32
2023-03-11T22:18:12.756Z,20.73
2023-03-11T22:21:54.724Z,16.63
2023-03-11T22:25:36.778Z,16.40
2023-03-11T22:29:18.598Z,21.77
2023-03-11T22:33:00.334Z,18.10
2023-03-11T22:36:42.111Z,16.40
2023-03-11T22:40:23.835Z,21.20
2023-03-11T22:44:05.690Z,20.52
2023-03-11T22:47:47.896Z,17.45
2023-03-11T22:51:29.639Z,22.83
2023-03-11T22:55:11.724Z,16.35
2023-03-11T22:58:53.783Z,21.30
2023-03-11T23:02:35.724Z,16.70
2023-03-11T23:06:19.645Z,24.55
2023-03-11T23:10:01.408Z,15.43
2023-03-11T23:13:44.366Z,13.15
2023-03-11T23:17:29.414Z,15.77
2023-03-11T23:21:15.126Z,12.80
2023-03-11T23:25:01.500Z,15.68
2023-03-11T23:28:46.228Z,12.82
2023-03-11T23:32:28.724Z,11.35
2023-03-11T23:36:15.662Z,9.43
2023-03-11T23:40:01.660Z,8.48
2023-03-11T23:43:46.936Z,9.50
2023-03-11T23:47:31.576Z,11.48
2023-03-11T23:51:14.042Z,6.10
2023-03-11T23:54:56.412Z,9.80
2023-03-11T23:58:39.504Z,8.33
